createdAt,value
2018-05-31T00:01:24.840Z,25.92
2018-05-31T00:03:56.942Z,26.03
2018-05-31T00:06:28.559Z,26.11
2018-05-31T00:08:59.478Z,26.18
2018-05-31T00:11:31.231Z,26.09
2018-05-31T00:14:03.227Z,26.06
2018-05-31T00:18:46.680Z,25.98
2018-05-31T00:21:18.525Z,25.80
2018-05-31T00:23:52.084Z,25.69
2018-05-31T00:26:24.244Z,25.73
2018-05-31T00:28:56.091Z,25.79
2018-05-31T00:31:27.602Z,25.84
2018-05-31T00:33:58.436Z,25.82
2018-05-31T00:42:31.678Z,25.97
2018-05-31T00:45:04.077Z,25.88
2018-05-31T00:47:36.288Z,25.81
2018-05-31T00:50:08.441Z,25.75
2018-05-31T00:58:51.863Z,25.81
2018-05-31T01:01:23.606Z,25.75
2018-05-31T01:03:55.560Z,25.64
2018-05-31T01:06:27.940Z,25.54
2018-05-31T01:08:59.582Z,25.57
2018-05-31T01:11:30.388Z,25.44
2018-05-31T01:14:02.310Z,25.35
2018-05-31T01:16:34.259Z,25.37
2018-05-31T01:21:50.618Z,25.32
2018-05-31T01:24:23.245Z,25.32
2018-05-31T01:26:56.221Z,25.29
2018-05-31T01:29:29.593Z,25.31
2018-05-31T01:32:00.527Z,25.33
2018-05-31T01:34:34.262Z,25.20
2018-05-31T01:37:07.896Z,25.08
2018-05-31T01:39:39.589Z,24.99
2018-05-31T01:42:10.501Z,25.01
2018-05-31T01:44:42.250Z,24.98
2018-05-31T01:47:14.261Z,24.89
2018-05-31T01:49:46.276Z,24.93
2018-05-31T01:52:18.265Z,24.88
2018-05-31T01:54:50.253Z,24.90
2018-05-31T01:57:22.244Z,24.93
2018-05-31T01:59:54.275Z,24.91
2018-05-31T02:02:26.293Z,24.85
2018-05-31T02:04:59.640Z,24.75
2018-05-31T02:07:30.544Z,24.75
2018-05-31T02:10:02.646Z,24.58
2018-05-31T02:12:33.565Z,24.51
2018-05-31T02:15:05.522Z,24.47
2018-05-31T02:17:38.295Z,24.37
2018-05-31T02:20:10.315Z,24.24
2018-05-31T02:22:42.287Z,24.32
2018-05-31T02:25:14.628Z,24.29
2018-05-31T02:27:45.582Z,24.03
2018-05-31T02:30:17.617Z,23.82
2018-05-31T02:32:49.619Z,23.71
2018-05-31T02:35:21.498Z,23.77
2018-05-31T02:37:54.530Z,23.76
2018-05-31T02:40:26.484Z,23.74
2018-05-31T02:42:57.404Z,23.78
2018-05-31T02:45:29.529Z,23.83
2018-05-31T02:48:01.608Z,23.70
2018-05-31T02:50:32.533Z,23.61
2018-05-31T02:53:03.555Z,23.42
2018-05-31T02:55:35.617Z,23.43
2018-05-31T02:58:06.516Z,23.35
2018-05-31T03:00:38.607Z,23.26
2018-05-31T03:03:09.542Z,23.13
2018-05-31T03:05:41.606Z,22.97
2018-05-31T03:08:12.552Z,22.95
2018-05-31T03:10:44.606Z,22.96
2018-05-31T03:13:15.542Z,22.92
2018-05-31T03:15:47.667Z,22.89
2018-05-31T03:18:18.110Z,22.87
2018-05-31T03:20:50.132Z,22.48
2018-05-31T03:23:22.604Z,22.32
2018-05-31T03:25:53.559Z,22.34
2018-05-31T03:28:25.513Z,22.36
2018-05-31T03:30:57.510Z,22.23
2018-05-31T03:33:29.513Z,22.07
2018-05-31T03:36:01.508Z,22.01
2018-05-31T03:38:33.520Z,21.99
2018-05-31T03:41:05.501Z,22.20
2018-05-31T03:43:37.499Z,22.31
2018-05-31T03:46:09.309Z,22.28
2018-05-31T03:48:41.278Z,22.39
2018-05-31T03:51:13.270Z,22.33
2018-05-31T03:53:45.251Z,22.33
2018-05-31T03:56:17.258Z,22.21
2018-05-31T03:58:49.267Z,22.12
2018-05-31T04:03:30.214Z,22.02
2018-05-31T04:06:03.085Z,21.86
2018-05-31T04:08:35.262Z,21.71
2018-05-31T04:13:33.770Z,21.92
2018-05-31T04:16:06.270Z,21.85
2018-05-31T04:18:37.582Z,21.61
2018-05-31T04:21:09.622Z,21.50
2018-05-31T04:23:40.618Z,21.51
2018-05-31T04:26:11.568Z,21.25
2018-05-31T04:28:42.589Z,21.20
2018-05-31T04:31:14.628Z,21.23
2018-05-31T04:36:10.014Z,21.18
2018-05-31T04:38:41.625Z,21.02
2018-05-31T04:41:13.578Z,21.04
2018-05-31T04:43:45.550Z,21.18
2018-05-31T04:46:17.665Z,21.30
2018-05-31T04:48:48.596Z,21.40
2018-05-31T04:51:19.591Z,21.30
2018-05-31T04:53:51.668Z,21.32
2018-05-31T04:56:24.896Z,21.23
2018-05-31T04:58:57.552Z,21.12
2018-05-31T05:01:29.547Z,21.30
2018-05-31T05:04:03.551Z,21.22
2018-05-31T05:06:35.579Z,21.25
2018-05-31T05:09:08.563Z,21.25
2018-05-31T05:11:40.557Z,21.28
2018-05-31T05:14:12.553Z,21.16
2018-05-31T05:16:44.539Z,20.98
2018-05-31T05:19:16.548Z,20.85
2018-05-31T05:21:48.547Z,20.98
2018-05-31T05:24:20.548Z,21.19
2018-05-31T05:28:51.742Z,21.35
2018-05-31T05:31:23.595Z,21.24
2018-05-31T05:33:55.629Z,21.18
2018-05-31T05:36:26.556Z,21.19
2018-05-31T05:38:58.537Z,21.27
2018-05-31T05:41:30.484Z,21.22
2018-05-31T05:45:09.889Z,21.29
2018-05-31T05:47:42.263Z,21.29
2018-05-31T05:50:14.628Z,21.32
2018-05-31T05:52:46.263Z,21.44
2018-05-31T05:55:18.285Z,21.37
2018-05-31T05:57:50.253Z,21.28
2018-05-31T06:00:22.513Z,21.31
2018-05-31T06:02:54.490Z,21.29
2018-05-31T06:05:26.474Z,21.28
2018-05-31T06:07:58.259Z,21.40
2018-05-31T06:10:30.264Z,21.25
2018-05-31T06:13:02.259Z,21.07
2018-05-31T06:15:34.249Z,21.06
2018-05-31T06:18:07.568Z,21.11
2018-05-31T06:20:39.247Z,21.15
2018-05-31T06:23:11.230Z,21.21
2018-05-31T06:25:43.487Z,21.21
2018-05-31T06:30:31.694Z,21.26
2018-05-31T06:33:03.559Z,21.29
2018-05-31T06:35:35.252Z,21.18
2018-05-31T06:38:07.241Z,21.10
2018-05-31T06:42:00.973Z,20.93
2018-05-31T06:44:33.268Z,21.08
2018-05-31T06:47:05.264Z,20.80
2018-05-31T06:51:30.852Z,20.33
2018-05-31T06:54:03.527Z,20.19
2018-05-31T06:56:35.635Z,20.18
2018-05-31T06:59:07.541Z,20.10
2018-05-31T07:01:39.667Z,20.08
2018-05-31T07:04:10.531Z,20.12
2018-05-31T07:06:42.552Z,20.20
2018-05-31T07:09:14.673Z,20.25
2018-05-31T07:11:45.519Z,20.27
2018-05-31T07:14:17.547Z,20.24
2018-05-31T07:16:49.548Z,20.04
2018-05-31T07:19:22.666Z,19.75
2018-05-31T07:21:54.669Z,19.87
2018-05-31T07:24:25.607Z,19.94
2018-05-31T07:26:57.702Z,19.77
2018-05-31T07:29:28.588Z,19.64
2018-05-31T07:32:00.664Z,19.63
2018-05-31T07:34:31.612Z,19.59
2018-05-31T07:37:02.586Z,19.45
2018-05-31T07:39:40.253Z,19.51
2018-05-31T07:42:12.391Z,19.48
2018-05-31T07:44:44.542Z,19.52
2018-05-31T07:47:16.541Z,19.46
2018-05-31T07:49:48.538Z,19.55
2018-05-31T07:52:20.556Z,19.72
2018-05-31T07:54:52.563Z,19.95
2018-05-31T07:57:24.669Z,19.96
2018-05-31T07:59:55.634Z,19.95
2018-05-31T08:02:27.668Z,19.73
2018-05-31T08:04:58.535Z,19.82
2018-05-31T08:07:30.623Z,19.84
2018-05-31T08:10:02.742Z,19.98
2018-05-31T08:12:35.732Z,19.92
2018-05-31T08:15:07.631Z,19.82
2018-05-31T08:17:39.630Z,19.87
2018-05-31T08:20:11.631Z,19.77
2018-05-31T08:22:42.556Z,19.78
2018-05-31T08:25:14.508Z,19.71
2018-05-31T08:27:46.540Z,19.75
2018-05-31T08:30:18.507Z,19.81
2018-05-31T08:32:50.506Z,19.74
2018-05-31T08:35:22.540Z,19.65
2018-05-31T08:37:54.542Z,19.47
2018-05-31T08:40:26.542Z,19.42
2018-05-31T08:42:58.540Z,19.30
2018-05-31T08:45:30.539Z,19.25
2018-05-31T08:48:02.541Z,19.21
2018-05-31T08:50:34.537Z,19.21
2018-05-31T08:53:06.509Z,19.30
2018-05-31T08:55:38.512Z,19.18
2018-05-31T08:58:10.510Z,19.04
2018-05-31T09:01:29.594Z,19.00
2018-05-31T09:04:01.503Z,19.00
2018-05-31T09:06:33.491Z,18.90
2018-05-31T09:09:04.353Z,18.80
2018-05-31T09:11:36.554Z,18.76
2018-05-31T09:14:07.538Z,18.91
2018-05-31T09:16:39.651Z,18.92
2018-05-31T09:19:11.527Z,18.92
2018-05-31T09:21:42.323Z,19.00
2018-05-31T09:24:13.381Z,19.14
2018-05-31T09:26:45.544Z,19.07
2018-05-31T09:29:16.401Z,19.09
2018-05-31T09:31:48.641Z,19.20
2018-05-31T09:34:21.420Z,19.45
2018-05-31T09:36:52.391Z,19.55
2018-05-31T09:39:24.529Z,19.57
2018-05-31T09:41:55.543Z,19.59
2018-05-31T09:44:26.242Z,19.64
2018-05-31T09:46:58.541Z,19.75
2018-05-31T09:49:30.627Z,19.75
2018-05-31T09:52:01.520Z,19.76
2018-05-31T09:54:33.534Z,19.86
2018-05-31T09:57:05.537Z,20.01
2018-05-31T09:59:36.360Z,20.01
2018-05-31T10:02:08.532Z,20.02
2018-05-31T10:04:40.549Z,20.08
2018-05-31T10:07:11.347Z,20.02
2018-05-31T10:12:35.966Z,20.06
2018-05-31T10:15:08.541Z,20.13
2018-05-31T10:17:39.205Z,20.15
2018-05-31T10:20:11.544Z,20.05
2018-05-31T10:22:43.596Z,20.09
2018-05-31T10:25:15.545Z,19.96
2018-05-31T10:27:46.246Z,19.88
2018-05-31T10:30:18.536Z,19.76
2018-05-31T10:32:49.109Z,19.80
2018-05-31T10:35:21.378Z,19.82
2018-05-31T10:37:53.617Z,19.66
2018-05-31T10:40:24.309Z,19.44
2018-05-31T10:42:58.749Z,19.47
2018-05-31T10:48:05.361Z,19.31
2018-05-31T10:50:36.575Z,19.29
2018-05-31T10:53:08.571Z,19.25
2018-05-31T10:55:40.677Z,19.31
2018-05-31T10:58:11.601Z,19.44
2018-05-31T11:00:43.686Z,19.52
2018-05-31T11:03:14.412Z,19.77
2018-05-31T11:05:46.609Z,19.88
2018-05-31T11:08:18.546Z,19.94
2018-05-31T11:10:50.588Z,20.03
2018-05-31T11:16:16.971Z,19.79
2018-05-31T11:20:25.566Z,19.88
2018-05-31T11:22:57.509Z,19.94
2018-05-31T11:25:29.540Z,20.01
2018-05-31T11:28:01.546Z,20.09
2018-05-31T11:30:33.546Z,20.06
2018-05-31T11:33:05.537Z,20.04
2018-05-31T11:35:37.549Z,19.83
2018-05-31T11:43:16.537Z,19.67
2018-05-31T11:45:48.555Z,19.78
2018-05-31T11:48:20.603Z,19.71
2018-05-31T11:50:52.628Z,19.77
2018-05-31T11:53:23.549Z,19.74
2018-05-31T11:55:55.629Z,19.45
2018-05-31T11:58:26.233Z,19.25
2018-05-31T12:00:58.285Z,19.32
2018-05-31T12:03:30.272Z,19.38
2018-05-31T12:06:02.280Z,19.31
2018-05-31T12:08:34.294Z,19.27
2018-05-31T12:11:06.264Z,19.30
2018-05-31T12:13:38.272Z,19.25
2018-05-31T12:16:10.273Z,19.37
2018-05-31T12:18:42.305Z,19.51
2018-05-31T12:21:14.296Z,19.48
2018-05-31T12:23:46.297Z,19.52
2018-05-31T12:26:18.289Z,19.49
2018-05-31T12:29:21.489Z,19.49
2018-05-31T12:31:53.629Z,19.37
2018-05-31T12:34:24.496Z,19.56
2018-05-31T12:36:56.563Z,19.44
2018-05-31T12:39:28.966Z,19.44
2018-05-31T12:42:00.589Z,19.50
2018-05-31T12:47:10.554Z,19.48
2018-05-31T12:49:42.240Z,19.51
2018-05-31T12:52:14.233Z,19.52
2018-05-31T12:54:46.231Z,19.48
2018-05-31T12:57:18.496Z,19.62
2018-05-31T12:59:50.262Z,19.79
2018-05-31T13:02:22.282Z,19.96
2018-05-31T13:04:54.237Z,19.95
2018-05-31T13:07:26.550Z,19.95
2018-05-31T13:09:58.505Z,20.04
2018-05-31T13:12:30.275Z,20.12
2018-05-31T13:16:43.598Z,20.20
2018-05-31T13:19:15.272Z,20.17
2018-05-31T13:21:47.243Z,20.18
2018-05-31T13:24:19.545Z,20.22
2018-05-31T13:26:51.525Z,20.13
2018-05-31T13:29:23.531Z,20.03
2018-05-31T13:31:55.530Z,20.08
2018-05-31T13:34:27.525Z,20.06
2018-05-31T13:36:59.519Z,19.94
2018-05-31T13:39:31.510Z,19.84
2018-05-31T13:42:03.505Z,19.85
2018-05-31T13:44:35.505Z,19.87
2018-05-31T13:47:07.510Z,19.92
2018-05-31T13:49:39.493Z,19.83
2018-05-31T13:52:11.506Z,19.79
2018-05-31T13:54:43.561Z,19.90
2018-05-31T13:57:15.507Z,19.98
2018-05-31T14:00:47.747Z,19.80
2018-05-31T14:03:19.585Z,19.89
2018-05-31T14:05:50.090Z,19.82
2018-05-31T14:08:22.035Z,19.87
2018-05-31T14:10:53.578Z,19.88
2018-05-31T14:13:24.089Z,19.85
2018-05-31T14:15:55.713Z,19.73
2018-05-31T14:18:27.503Z,19.72
2018-05-31T14:21:00.695Z,19.75
2018-05-31T14:23:32.558Z,19.90
2018-05-31T14:26:04.235Z,19.91
2018-05-31T14:29:33.850Z,19.98
2018-05-31T14:32:05.575Z,20.04
2018-05-31T14:34:36.417Z,20.00
2018-05-31T14:37:08.482Z,20.08
2018-05-31T14:39:40.252Z,20.13
2018-05-31T14:42:12.216Z,20.05
2018-05-31T14:44:44.195Z,19.83
2018-05-31T14:47:17.768Z,19.78
2018-05-31T14:49:49.542Z,19.87
2018-05-31T14:52:21.222Z,20.02
2018-05-31T14:54:53.157Z,20.02
2018-05-31T14:57:25.208Z,19.89
2018-05-31T14:59:57.058Z,19.86
2018-05-31T15:02:29.183Z,19.96
2018-05-31T15:05:01.208Z,20.06
2018-05-31T15:07:33.211Z,20.06
2018-05-31T15:12:10.479Z,20.07
2018-05-31T15:14:42.558Z,20.12
2018-05-31T15:17:16.138Z,20.02
2018-05-31T15:19:48.243Z,19.98
2018-05-31T15:22:20.234Z,20.09
2018-05-31T15:24:52.066Z,20.05
2018-05-31T15:27:23.569Z,20.04
2018-05-31T15:29:54.030Z,20.07
2018-05-31T15:32:25.607Z,20.08
2018-05-31T15:34:56.417Z,20.20
2018-05-31T15:37:28.216Z,20.14
2018-05-31T15:40:00.232Z,20.02
2018-05-31T15:42:32.120Z,20.08
2018-05-31T15:45:03.888Z,20.18
2018-05-31T15:47:36.243Z,20.22
2018-05-31T15:50:08.231Z,20.27
2018-05-31T15:52:40.233Z,20.29
2018-05-31T15:55:12.237Z,20.26
2018-05-31T15:57:44.222Z,20.29
2018-05-31T16:00:16.266Z,20.04
2018-05-31T16:02:48.220Z,20.08
2018-05-31T16:05:20.195Z,20.18
2018-05-31T16:07:52.510Z,20.29
2018-05-31T16:10:24.251Z,20.34
2018-05-31T16:12:56.490Z,20.47
2018-05-31T16:15:28.290Z,20.48
2018-05-31T16:18:00.273Z,20.46
2018-05-31T16:20:32.503Z,20.56
2018-05-31T16:23:04.651Z,20.68
2018-05-31T16:27:47.776Z,20.76
2018-05-31T16:30:20.277Z,20.81
2018-05-31T16:32:52.262Z,20.68
2018-05-31T16:38:14.718Z,20.71
2018-05-31T16:40:46.631Z,20.77
2018-05-31T16:43:18.503Z,20.77
2018-05-31T16:45:50.600Z,20.92
2018-05-31T16:48:22.732Z,21.08
2018-05-31T16:50:54.573Z,21.04
2018-05-31T16:53:25.403Z,20.97
2018-05-31T16:55:57.540Z,20.89
2018-05-31T16:58:28.396Z,20.90
2018-05-31T17:01:00.539Z,20.92
2018-05-31T17:03:32.637Z,20.84
2018-05-31T17:06:04.531Z,20.92
2018-05-31T17:08:36.523Z,21.06
2018-05-31T17:11:08.545Z,21.19
2018-05-31T17:13:40.622Z,21.27
2018-05-31T17:16:12.563Z,21.32
2018-05-31T17:18:44.625Z,21.42
2018-05-31T17:21:15.262Z,21.50
2018-05-31T17:23:47.560Z,21.52
2018-05-31T17:26:19.680Z,21.53
2018-05-31T17:30:00.543Z,21.57
2018-05-31T17:32:32.630Z,21.62
2018-05-31T17:37:46.034Z,21.80
2018-05-31T17:40:18.536Z,21.84
2018-05-31T17:42:49.281Z,21.77
2018-05-31T17:45:21.621Z,21.84
2018-05-31T17:47:53.539Z,22.01
2018-05-31T17:50:25.520Z,22.07
2018-05-31T17:52:57.586Z,22.21
2018-05-31T17:55:28.371Z,22.35
2018-05-31T17:58:00.577Z,22.45
2018-05-31T18:01:06.704Z,22.55
2018-05-31T18:03:38.552Z,22.61
2018-05-31T18:06:10.494Z,22.47
2018-05-31T18:08:43.573Z,22.49
2018-05-31T18:11:14.351Z,22.70
2018-05-31T18:13:46.230Z,22.84
2018-05-31T18:16:18.277Z,22.62
2018-05-31T18:18:51.628Z,22.46
2018-05-31T18:21:22.074Z,22.59
2018-05-31T18:23:54.221Z,22.67
2018-05-31T18:26:27.765Z,22.86
2018-05-31T18:28:59.575Z,22.84
2018-05-31T18:31:31.662Z,22.87
2018-05-31T18:34:04.886Z,22.95
2018-05-31T18:36:38.525Z,23.05
2018-05-31T18:39:10.285Z,23.01
2018-05-31T18:41:42.251Z,23.07
2018-05-31T18:44:14.493Z,23.07
2018-05-31T18:46:46.560Z,23.12
2018-05-31T18:49:18.686Z,23.21
2018-05-31T18:51:50.516Z,23.26
2018-05-31T18:59:43.516Z,23.28
2018-05-31T19:02:15.611Z,23.14
2018-05-31T19:04:47.311Z,23.35
2018-05-31T19:07:43.672Z,23.43
2018-05-31T19:10:15.509Z,23.34
2018-05-31T19:12:52.626Z,23.17
2018-05-31T19:17:38.783Z,23.27
2018-05-31T19:20:10.638Z,23.43
2018-05-31T19:22:42.669Z,23.55
2018-05-31T19:25:19.644Z,23.57
2018-05-31T19:27:51.619Z,23.40
2018-05-31T19:30:28.588Z,23.40
2018-05-31T19:32:59.089Z,23.44
2018-05-31T19:38:46.512Z,23.65
2018-05-31T19:41:18.249Z,23.51
2018-05-31T19:43:55.590Z,23.58
2018-05-31T19:48:48.480Z,23.57
2018-05-31T19:51:25.603Z,23.53
2018-05-31T19:53:56.507Z,23.57
2018-05-31T19:56:29.976Z,23.56
2018-05-31T19:59:07.077Z,23.66
2018-05-31T20:01:44.224Z,23.80
2018-05-31T20:04:15.531Z,23.84
2018-05-31T20:08:31.399Z,23.69
2018-05-31T20:11:03.620Z,23.66
2018-05-31T20:13:35.608Z,23.62
2018-05-31T20:16:06.223Z,23.42
2018-05-31T20:18:38.301Z,23.13
2018-05-31T20:21:10.280Z,23.24
2018-05-31T20:23:42.275Z,23.45
2018-05-31T20:26:14.267Z,23.70
2018-05-31T20:28:46.289Z,23.69
2018-05-31T20:31:18.269Z,23.56
2018-05-31T20:33:50.294Z,23.66
2018-05-31T20:36:22.254Z,23.75
2018-05-31T20:38:54.263Z,23.86
2018-05-31T20:41:26.280Z,23.95
2018-05-31T20:43:58.267Z,24.02
2018-05-31T20:46:30.266Z,24.07
2018-05-31T20:49:02.276Z,23.98
2018-05-31T20:51:34.250Z,23.99
2018-05-31T20:54:06.281Z,23.95
2018-05-31T20:56:38.258Z,23.97
2018-05-31T20:59:10.273Z,23.86
2018-05-31T21:01:42.284Z,23.99
2018-05-31T21:04:14.273Z,24.04
2018-05-31T21:06:46.249Z,23.64
2018-05-31T21:09:18.275Z,23.73
2018-05-31T21:11:50.315Z,23.68
2018-05-31T21:14:22.266Z,23.74
2018-05-31T21:16:54.263Z,23.86
2018-05-31T21:19:26.260Z,23.91
2018-05-31T21:21:58.299Z,23.97
2018-05-31T21:24:30.484Z,24.02
2018-05-31T21:27:02.304Z,24.01
2018-05-31T21:29:34.284Z,23.98
2018-05-31T21:32:06.284Z,24.26
2018-05-31T21:34:38.253Z,24.47
2018-05-31T21:37:10.271Z,24.52
2018-05-31T21:39:42.255Z,24.26
2018-05-31T21:42:14.251Z,24.12
2018-05-31T21:44:46.118Z,24.20
2018-05-31T21:47:17.977Z,24.16
2018-05-31T21:49:49.593Z,23.82
2018-05-31T21:52:20.118Z,23.83
2018-05-31T21:54:51.619Z,23.62
2018-05-31T21:57:23.716Z,23.65
2018-05-31T21:59:54.235Z,23.52
2018-05-31T22:02:26.312Z,23.70
2018-05-31T22:04:58.249Z,23.84
2018-05-31T22:07:30.235Z,23.91
2018-05-31T22:10:02.235Z,24.13
2018-05-31T22:12:34.250Z,24.24
2018-05-31T22:15:06.247Z,24.32
2018-05-31T22:17:38.260Z,24.34
2018-05-31T22:20:10.250Z,24.38
2018-05-31T22:22:42.224Z,24.52
2018-05-31T22:25:14.239Z,24.73
2018-05-31T22:27:46.251Z,24.52
2018-05-31T22:30:18.287Z,24.38
2018-05-31T22:32:50.259Z,24.37
2018-05-31T22:35:22.248Z,24.52
2018-05-31T22:37:54.239Z,24.67
2018-05-31T22:42:21.666Z,24.79
2018-05-31T22:44:53.553Z,24.82
2018-05-31T22:47:24.045Z,24.77
2018-05-31T22:49:55.559Z,24.82
2018-05-31T22:52:26.424Z,24.92
2018-05-31T22:54:58.555Z,24.84
2018-05-31T22:57:29.074Z,24.77
2018-05-31T23:00:01.711Z,24.72
2018-05-31T23:02:33.570Z,24.63
2018-05-31T23:05:04.491Z,24.51
2018-05-31T23:07:36.225Z,24.51
2018-05-31T23:10:09.569Z,24.49
2018-05-31T23:13:33.571Z,24.54
2018-05-31T23:16:04.040Z,24.63
2018-05-31T23:18:35.562Z,24.65
2018-05-31T23:21:07.420Z,24.59
2018-05-31T23:23:39.231Z,24.52
2018-05-31T23:26:11.217Z,24.48
2018-05-31T23:28:43.468Z,24.61
2018-05-31T23:31:15.225Z,24.59
2018-05-31T23:33:47.112Z,24.60
2018-05-31T23:36:19.123Z,24.61
2018-05-31T23:38:50.964Z,24.49
2018-05-31T23:41:23.216Z,24.41
2018-05-31T23:43:55.238Z,24.38
2018-05-31T23:46:26.597Z,24.39
2018-05-31T23:48:58.062Z,24.45
2018-05-31T23:51:30.561Z,24.50
2018-05-31T23:54:02.414Z,24.57
2018-05-31T23:57:35.513Z,24.69
